createdAt,value
2019-02-19T00:02:37.336Z,1022.7
2019-02-19T00:07:37.333Z,1022.8
2019-02-19T00:12:37.363Z,1022.8
2019-02-19T00:17:37.366Z,1022.8
2019-02-19T00:22:37.348Z,1022.8
2019-02-19T00:27:37.353Z,1022.8
2019-02-19T00:32:37.315Z,1022.8
2019-02-19T00:37:37.367Z,1022.8
2019-02-19T00:42:37.365Z,1022.8
2019-02-19T00:47:37.510Z,1022.7
2019-02-19T00:52:37.395Z,1022.7
2019-02-19T00:57:37.330Z,1022.8
2019-02-19T01:02:37.396Z,1022.8
2019-02-19T01:07:37.358Z,1022.8
2019-02-19T01:12:37.406Z,1022.8
2019-02-19T01:17:37.510Z,1022.8
2019-02-19T01:22:37.370Z,1023
2019-02-19T01:27:37.402Z,1023
2019-02-19T01:32:37.390Z,1023
2019-02-19T01:37:37.389Z,1023
2019-02-19T01:42:37.396Z,1023
2019-02-19T01:47:37.408Z,1022.9
2019-02-19T01:52:37.358Z,1022.9
2019-02-19T01:57:37.403Z,1022.7
2019-02-19T02:02:37.410Z,1022.9
2019-02-19T02:07:37.400Z,1022.9
2019-02-19T02:12:37.470Z,1022.9
2019-02-19T02:17:37.406Z,1022.9
2019-02-19T02:22:37.406Z,1022.9
2019-02-19T02:27:37.417Z,1022.9
2019-02-19T02:32:37.412Z,1022.8
2019-02-19T02:37:37.466Z,1022.8
2019-02-19T02:42:37.429Z,1022.8
2019-02-19T02:47:37.458Z,1022.8
2019-02-19T02:52:37.423Z,1022.8
2019-02-19T02:57:37.437Z,1022.8
2019-02-19T03:02:37.400Z,1022.8
2019-02-19T03:07:37.434Z,1022.9
2019-02-19T03:12:37.453Z,1023
2019-02-19T03:17:37.492Z,1023
2019-02-19T03:22:37.450Z,1023.1
2019-02-19T03:27:37.431Z,1023.2
2019-02-19T03:32:37.463Z,1023.3
2019-02-19T03:37:37.423Z,1023.3
2019-02-19T03:42:37.452Z,1023.3
2019-02-19T03:47:37.442Z,1023.4
2019-02-19T03:52:37.476Z,1023.4
2019-02-19T03:57:37.474Z,1023.5
2019-02-19T04:02:37.444Z,1023.5
2019-02-19T04:07:37.467Z,1023.6
2019-02-19T04:12:37.471Z,1023.6
2019-02-19T04:17:37.459Z,1023.6
2019-02-19T04:22:37.529Z,1023.6
2019-02-19T04:27:37.414Z,1023.6
2019-02-19T04:32:37.493Z,1023.7
2019-02-19T04:37:37.480Z,1023.6
2019-02-19T04:42:37.483Z,1023.8
2019-02-19T04:47:37.475Z,1023.8
2019-02-19T04:52:37.493Z,1023.9
2019-02-19T04:57:37.484Z,1023.8
2019-02-19T05:02:37.488Z,1023.9
2019-02-19T05:07:37.544Z,1023.8
2019-02-19T05:12:37.491Z,1023.8
2019-02-19T05:17:37.537Z,1023.8
2019-02-19T05:22:37.503Z,1023.8
2019-02-19T05:27:37.517Z,1023.8
2019-02-19T05:32:37.521Z,1023.9
2019-02-19T05:37:37.514Z,1024
2019-02-19T05:42:37.502Z,1024.1
2019-02-19T05:47:37.507Z,1024
2019-02-19T05:52:37.570Z,1024
2019-02-19T05:57:37.688Z,1024
2019-02-19T06:02:37.525Z,1024.3
2019-02-19T06:07:37.525Z,1024.3
2019-02-19T06:12:37.533Z,1024.4
2019-02-19T06:17:37.543Z,1024.3
2019-02-19T06:22:37.550Z,1024.4
2019-02-19T06:27:37.582Z,1024.3
2019-02-19T06:32:37.524Z,1024.4
2019-02-19T06:37:37.531Z,1024.5
2019-02-19T06:42:37.542Z,1024.5
2019-02-19T06:47:37.533Z,1024.5
2019-02-19T06:52:37.557Z,1024.6
2019-02-19T06:57:37.555Z,1024.6
2019-02-19T07:02:37.556Z,1024.6
2019-02-19T07:07:37.560Z,1024.6
2019-02-19T07:12:37.550Z,1024.6
2019-02-19T07:17:37.556Z,1024.5
2019-02-19T07:22:37.563Z,1024.6
2019-02-19T07:27:37.527Z,1024.6
2019-02-19T07:32:37.566Z,1024.6
2019-02-19T07:37:37.578Z,1024.5
2019-02-19T07:42:37.639Z,1024.5
2019-02-19T07:47:37.690Z,1024.5
2019-02-19T07:52:37.629Z,1024.6
2019-02-19T07:57:37.707Z,1024.6
2019-02-19T08:02:37.576Z,1024.6
2019-02-19T08:07:37.615Z,1024.5
2019-02-19T08:12:37.621Z,1024.6
2019-02-19T08:17:37.586Z,1024.6
2019-02-19T08:22:37.611Z,1024.6
2019-02-19T08:27:37.584Z,1024.6
2019-02-19T08:32:37.595Z,1024.5
2019-02-19T08:37:37.634Z,1024.5
2019-02-19T08:42:37.614Z,1024.6
2019-02-19T08:47:43.274Z,1024.4
2019-02-19T08:52:37.557Z,1024.4
2019-02-19T08:57:37.618Z,1024.4
2019-02-19T09:02:37.653Z,1024.4
2019-02-19T09:07:37.633Z,1024.4
2019-02-19T09:12:37.657Z,1024.4
2019-02-19T09:17:37.650Z,1024.4
2019-02-19T09:22:37.635Z,1024.3
2019-02-19T09:27:37.643Z,1024.3
2019-02-19T09:32:37.647Z,1024.2
2019-02-19T09:37:37.643Z,1024.2
2019-02-19T09:42:37.694Z,1024.2
2019-02-19T09:47:37.674Z,1024
2019-02-19T09:52:37.649Z,1024
2019-02-19T09:57:37.627Z,1024
2019-02-19T10:02:37.642Z,1024
2019-02-19T10:07:37.647Z,1023.9
2019-02-19T10:12:37.670Z,1023.9
2019-02-19T10:17:37.703Z,1023.9
2019-02-19T10:22:37.719Z,1023.9
2019-02-19T10:27:37.653Z,1023.7
2019-02-19T10:32:37.687Z,1023.8
2019-02-19T10:37:37.700Z,1023.7
2019-02-19T10:42:37.698Z,1023.7
2019-02-19T10:47:37.662Z,1023.5
2019-02-19T10:52:37.685Z,1023.4
2019-02-19T10:57:37.670Z,1023.3
2019-02-19T11:02:37.633Z,1023.3
2019-02-19T11:07:37.690Z,1023.2
2019-02-19T11:12:37.687Z,1023
2019-02-19T11:17:37.676Z,1023
2019-02-19T11:22:37.687Z,1022.9
2019-02-19T11:27:37.687Z,1022.8
2019-02-19T11:32:37.687Z,1022.7
2019-02-19T11:37:37.835Z,1022.6
2019-02-19T11:42:37.695Z,1022.6
2019-02-19T11:47:37.700Z,1022.5
2019-02-19T11:52:37.692Z,1022.4
2019-02-19T11:57:37.738Z,1022.2
2019-02-19T12:02:37.702Z,1022.2
2019-02-19T12:07:37.752Z,1022.1
2019-02-19T12:12:37.754Z,1022.1
2019-02-19T12:17:37.702Z,1022.1
2019-02-19T12:22:37.722Z,1021.8
2019-02-19T12:27:37.882Z,1021.7
2019-02-19T12:32:37.746Z,1021.6
2019-02-19T12:37:37.901Z,1021.6
2019-02-19T12:42:37.801Z,1021.6
2019-02-19T12:47:37.742Z,1021.4
2019-02-19T12:52:37.731Z,1021.3
2019-02-19T12:57:37.756Z,1021.3
2019-02-19T13:02:37.751Z,1021.2
2019-02-19T13:07:37.759Z,1021.2
2019-02-19T13:12:37.727Z,1021.2
2019-02-19T13:17:37.774Z,1021.1
2019-02-19T13:22:37.751Z,1021
2019-02-19T13:27:37.762Z,1021
2019-02-19T13:32:37.771Z,1020.9
2019-02-19T13:37:37.738Z,1020.9
2019-02-19T13:42:37.743Z,1020.9
2019-02-19T13:47:37.781Z,1021
2019-02-19T13:52:37.795Z,1020.9
2019-02-19T13:57:37.780Z,1021
2019-02-19T14:02:37.781Z,1021
2019-02-19T14:07:37.787Z,1021
2019-02-19T14:12:37.778Z,1021
2019-02-19T14:17:37.769Z,1021.1
2019-02-19T14:22:39.295Z,1021.3
2019-02-19T14:27:37.818Z,1021.2
2019-02-19T14:32:37.794Z,1021.2
2019-02-19T14:37:37.784Z,1021.3
2019-02-19T14:42:37.792Z,1021.3
2019-02-19T14:47:37.777Z,1021.3
2019-02-19T14:52:37.828Z,1021.2
2019-02-19T14:57:37.820Z,1021.2
2019-02-19T15:02:37.820Z,1021.4
2019-02-19T15:07:37.848Z,1021.4
2019-02-19T15:12:37.879Z,1021.4
2019-02-19T15:17:37.816Z,1021.3
2019-02-19T15:22:37.810Z,1021.2
2019-02-19T15:27:37.842Z,1021.2
2019-02-19T15:32:37.846Z,1021.2
2019-02-19T15:37:37.837Z,1021.2
2019-02-19T15:42:38.173Z,1021.2
2019-02-19T15:47:37.854Z,1021.1
2019-02-19T15:52:37.850Z,1021.1
2019-02-19T15:57:38.514Z,1021.2
2019-02-19T16:02:37.830Z,1021.3
2019-02-19T16:07:37.892Z,1021.3
2019-02-19T16:12:37.948Z,1021.3
2019-02-19T16:17:37.837Z,1021.4
2019-02-19T16:22:37.863Z,1021.4
2019-02-19T16:27:37.883Z,1021.4
2019-02-19T16:32:38.330Z,1021.5
2019-02-19T16:37:37.920Z,1021.6
2019-02-19T16:42:38.496Z,1021.6
2019-02-19T16:47:37.917Z,1021.5
2019-02-19T16:52:37.994Z,1021.7
2019-02-19T16:57:37.910Z,1021.6
2019-02-19T17:02:37.915Z,1021.6
2019-02-19T17:07:37.909Z,1021.7
2019-02-19T17:12:37.970Z,1021.8
2019-02-19T17:17:37.833Z,1021.7
2019-02-19T17:22:37.988Z,1021.7
2019-02-19T17:27:37.917Z,1021.9
2019-02-19T17:32:37.877Z,1021.9
2019-02-19T17:37:40.649Z,1021.8
2019-02-19T17:42:37.910Z,1021.9
2019-02-19T17:47:38.910Z,1022
2019-02-19T17:52:37.915Z,1022
2019-02-19T17:57:37.979Z,1022
2019-02-19T18:02:37.945Z,1022
2019-02-19T18:07:38.090Z,1022.1
2019-02-19T18:12:38.002Z,1022
2019-02-19T18:17:38.953Z,1022.1
2019-02-19T18:22:37.966Z,1022.1
2019-02-19T18:27:38.025Z,1022.1
2019-02-19T18:32:37.983Z,1022.1
2019-02-19T18:37:38.022Z,1022.1
2019-02-19T18:42:38.069Z,1022
2019-02-19T18:47:37.954Z,1022
2019-02-19T18:52:37.972Z,1022.2
2019-02-19T18:57:38.004Z,1022.2
2019-02-19T19:02:37.987Z,1022.2
2019-02-19T19:07:38.064Z,1022.2
2019-02-19T19:12:38.007Z,1022.2
2019-02-19T19:17:38.012Z,1022.4
2019-02-19T19:22:38.062Z,1022.3
2019-02-19T19:27:38.073Z,1022.4
2019-02-19T19:32:38.127Z,1022.5
2019-02-19T19:37:38.125Z,1022.5
2019-02-19T19:42:38.134Z,1022.5
2019-02-19T19:47:40.691Z,1022.4
2019-02-19T19:52:38.121Z,1022.5
2019-02-19T19:57:38.057Z,1022.5
2019-02-19T20:02:38.136Z,1022.5
2019-02-19T20:07:38.114Z,1022.5
2019-02-19T20:12:38.099Z,1022.5
2019-02-19T20:17:41.923Z,1022.6
2019-02-19T20:22:38.111Z,1022.5
2019-02-19T20:27:38.116Z,1022.7
2019-02-19T20:32:38.105Z,1022.6
2019-02-19T20:37:38.149Z,1022.7
2019-02-19T20:42:38.750Z,1022.8
2019-02-19T20:47:40.959Z,1022.9
2019-02-19T20:52:38.106Z,1022.9
2019-02-19T20:57:38.257Z,1022.8
2019-02-19T21:02:41.001Z,1022.8
2019-02-19T21:07:38.273Z,1022.8
2019-02-19T21:12:38.161Z,1022.8
2019-02-19T21:17:38.162Z,1022.9
2019-02-19T21:22:38.432Z,1022.8
2019-02-19T21:27:38.190Z,1023.1
2019-02-19T21:32:38.359Z,1023.1
2019-02-19T21:37:38.188Z,1023.3
2019-02-19T21:42:39.305Z,1023.4
2019-02-19T21:47:38.317Z,1023.4
2019-02-19T21:52:38.415Z,1023.3
2019-02-19T21:57:38.077Z,1023.3
2019-02-19T22:02:38.048Z,1023.4
2019-02-19T22:07:38.073Z,1023.4
2019-02-19T22:12:38.118Z,1023.3
2019-02-19T22:17:38.068Z,1023.3
2019-02-19T22:22:38.123Z,1023.4
2019-02-19T22:27:39.155Z,1023.4
2019-02-19T22:32:39.122Z,1023.4
2019-02-19T22:37:39.537Z,1023.4
2019-02-19T22:42:39.143Z,1023.5
2019-02-19T22:47:39.159Z,1023.4
2019-02-19T22:52:39.161Z,1023.5
2019-02-19T22:57:39.191Z,1023.5
2019-02-19T23:02:39.129Z,1023.7
2019-02-19T23:07:39.135Z,1023.7
2019-02-19T23:12:39.169Z,1023.7
2019-02-19T23:17:39.183Z,1023.7
2019-02-19T23:22:39.227Z,1023.7
2019-02-19T23:27:39.312Z,1023.8
2019-02-19T23:32:39.281Z,1023.7
2019-02-19T23:37:39.297Z,1023.8
2019-02-19T23:42:39.300Z,1023.9
2019-02-19T23:47:39.288Z,1024
2019-02-19T23:52:39.333Z,1024
2019-02-19T23:57:39.298Z,1023.9
